Time;durP1;ratioP1;P1;durP2;ratioP2;P2;SDS_P1;SDS_P2;PMS_P1;PMS_P2;Temp;Humidity;BMP_temperature;BMP_pressure;BME280_temperature;BME280_humidity;BME280_pressure;Samples;Min_cycle;Max_cycle;Signal;HPM_P1;HPM_P2
2024/02/05 00:02:14;;;;;;;4.87;4.47;;;;;;;7.48;69.21;96929.16;5027272;28;20180;-65
2024/02/05 00:04:39;;;;;;;5.80;5.30;;;;;;;7.39;69.67;96932.84;5027414;28;20210;-68
2024/02/05 00:07:05;;;;;;;5.37;4.97;;;;;;;7.39;69.46;96933.72;5027156;28;20179;-69
2024/02/05 00:09:31;;;;;;;11.07;4.97;;;;;;;7.36;70.17;96943.38;5026649;28;20201;-67
2024/02/05 00:11:56;;;;;;;6.50;4.53;;;;;;;7.41;69.53;96934.53;5026310;28;20199;-69
2024/02/05 00:14:22;;;;;;;5.90;4.03;;;;;;;7.28;69.80;96933.09;5026203;28;20218;-67
2024/02/05 00:16:47;;;;;;;5.53;4.97;;;;;;;7.36;69.36;96933.78;5027040;28;20223;-67
2024/02/05 00:19:12;;;;;;;9.17;4.50;;;;;;;7.29;70.33;96936.56;5026430;28;20713;-68
2024/02/05 00:21:38;;;;;;;5.60;4.20;;;;;;;7.34;69.94;96938.16;5026199;28;20245;-69
2024/02/05 00:24:04;;;;;;;4.40;4.00;;;;;;;7.38;69.81;96945.03;5025329;28;20200;-69
2024/02/05 00:26:29;;;;;;;5.27;4.37;;;;;;;7.24;70.03;96944.50;5026282;28;20641;-68
2024/02/05 00:28:55;;;;;;;10.00;5.00;;;;;;;7.12;70.26;96937.78;5026362;28;20917;-67
2024/02/05 00:31:20;;;;;;;10.60;5.20;;;;;;;7.18;69.97;96940.28;5029065;28;20291;-67
2024/02/05 00:33:45;;;;;;;5.27;4.50;;;;;;;7.20;70.14;96935.00;5029371;28;20542;-68
2024/02/05 00:36:11;;;;;;;4.77;4.37;;;;;;;7.12;69.91;96927.34;5026087;28;20457;-69
2024/02/05 00:38:37;;;;;;;5.40;4.77;;;;;;;7.07;70.66;96930.97;5026647;28;20182;-68
2024/02/05 00:41:03;;;;;;;5.57;4.67;;;;;;;7.26;69.62;96923.59;5026736;28;20185;-69
2024/02/05 00:43:28;;;;;;;5.60;4.43;;;;;;;7.05;70.86;96928.38;5026492;28;20210;-70
2024/02/05 00:45:54;;;;;;;8.00;4.20;;;;;;;7.16;70.14;96926.41;5026669;28;20516;-67
2024/02/05 00:48:19;;;;;;;7.17;5.33;;;;;;;7.14;70.08;96925.56;5026262;28;20270;-68
2024/02/05 00:50:45;;;;;;;11.53;4.50;;;;;;;7.03;70.41;96927.53;5025874;28;20218;-68
2024/02/05 00:53:10;;;;;;;9.50;4.30;;;;;;;7.03;70.25;96926.69;5026239;28;20634;-69
2024/02/05 00:55:36;;;;;;;5.17;3.80;;;;;;;6.97;70.72;96932.91;5025910;28;20192;-68
2024/02/05 00:58:01;;;;;;;4.77;4.30;;;;;;;6.99;71.07;96931.09;5025445;28;20260;-69
2024/02/05 01:00:26;;;;;;;6.60;4.80;;;;;;;7.02;70.07;96936.28;5024760;28;20168;-67
2024/02/05 01:02:52;;;;;;;5.37;4.33;;;;;;;6.82;70.73;96941.03;5025091;28;20183;-68
2024/02/05 01:05:18;;;;;;;7.03;5.00;;;;;;;6.93;70.98;96952.13;5025690;28;20666;-68
2024/02/05 01:07:43;;;;;;;4.77;4.30;;;;;;;6.87;70.94;96940.03;5025847;28;20171;-67
2024/02/05 01:10:10;;;;;;;5.50;5.00;;;;;;;6.69;72.01;96948.28;5025331;28;20533;-68
2024/02/05 01:12:38;;;;;;;5.40;4.70;;;;;;;6.69;71.40;96949.13;5025709;28;20290;-68
2024/02/05 01:15:05;;;;;;;10.13;5.10;;;;;;;6.83;70.59;96956.69;5025951;28;20481;-68
2024/02/05 01:17:31;;;;;;;6.40;4.00;;;;;;;6.95;70.79;96945.13;5025721;28;20425;-67
2024/02/05 01:19:56;;;;;;;4.33;3.93;;;;;;;6.79;71.44;96958.47;5025767;28;20410;-69
2024/02/05 01:22:22;;;;;;;5.93;5.23;;;;;;;6.75;71.18;96956.81;5025927;28;20667;-67
2024/02/05 01:24:47;;;;;;;9.10;5.30;;;;;;;6.78;70.79;96958.53;5025431;28;20279;-69
2024/02/05 01:27:13;;;;;;;5.30;4.13;;;;;;;6.57;71.68;96955.44;5025733;28;20193;-68
2024/02/05 01:29:41;;;;;;;4.60;4.03;;;;;;;6.76;71.28;96950.72;5025321;28;20175;-66
2024/02/05 01:32:07;;;;;;;4.40;3.60;;;;;;;6.67;71.67;96955.25;5025224;28;20349;-69
2024/02/05 01:34:32;;;;;;;8.70;4.43;;;;;;;6.52;71.78;96962.50;5024965;28;20513;-67
2024/02/05 01:36:58;;;;;;;10.20;4.60;;;;;;;6.67;71.31;96948.28;5024756;28;20184;-67
2024/02/05 01:39:23;;;;;;;5.03;4.60;;;;;;;6.66;71.61;96948.31;5025493;28;20222;-68
2024/02/05 01:41:48;;;;;;;8.50;4.23;;;;;;;6.54;71.96;96955.50;5026280;28;20881;-68
2024/02/05 01:44:14;;;;;;;5.47;4.97;;;;;;;6.56;71.65;96943.25;5026072;28;20740;-67
2024/02/05 01:46:39;;;;;;;6.50;4.10;;;;;;;6.66;70.82;96935.25;5025270;28;20233;-68
2024/02/05 01:49:08;;;;;;;5.13;4.43;;;;;;;6.66;71.03;96933.53;5025359;28;20196;-68
2024/02/05 01:51:38;;;;;;;11.67;4.73;;;;;;;6.60;71.53;96932.81;5025224;28;20745;-68
2024/02/05 01:54:05;;;;;;;6.57;3.83;;;;;;;6.62;71.34;96928.41;5025137;28;20822;-67
2024/02/05 01:56:33;;;;;;;4.40;3.83;;;;;;;6.64;71.17;96926.59;5025175;28;20476;-67
2024/02/05 01:58:59;;;;;;;6.73;4.33;;;;;;;6.66;71.05;96924.84;5025155;28;20414;-68
2024/02/05 02:01:29;;;;;;;5.33;4.83;;;;;;;6.66;70.93;96930.06;5025048;28;20792;-68
2024/02/05 02:03:55;;;;;;;5.70;4.23;;;;;;;6.54;70.98;96936.38;5025251;28;20809;-68
2024/02/05 02:06:21;;;;;;;4.20;3.43;;;;;;;6.36;71.95;96934.97;5025290;28;20975;-67
2024/02/05 02:08:48;;;;;;;4.90;4.00;;;;;;;6.52;71.21;96928.59;5025092;28;20446;-67
2024/02/05 02:11:13;;;;;;;5.77;4.10;;;;;;;6.49;71.96;96926.03;5024712;28;20203;-68
2024/02/05 02:13:39;;;;;;;5.47;3.97;;;;;;;6.51;71.44;96929.47;5024709;28;20410;-68
2024/02/05 02:16:09;;;;;;;7.37;4.53;;;;;;;6.56;71.44;96926.78;5024380;28;20198;-69
2024/02/05 02:18:37;;;;;;;5.80;5.00;;;;;;;6.54;71.01;96934.66;5024846;28;20203;-68
2024/02/05 02:21:04;;;;;;;4.67;3.70;;;;;;;6.45;71.23;96934.81;5024595;28;20438;-68
2024/02/05 02:23:32;;;;;;;4.60;3.37;;;;;;;6.45;71.23;96937.41;5024621;28;20426;-68
2024/02/05 02:25:58;;;;;;;3.63;3.33;;;;;;;6.29;71.42;96938.59;5024636;28;20481;-69
2024/02/05 02:28:24;;;;;;;8.03;4.07;;;;;;;6.32;71.59;96942.00;5024902;28;21086;-68
2024/02/05 02:30:51;;;;;;;5.67;4.30;;;;;;;6.19;71.99;96943.13;5024487;28;20466;-69
2024/02/05 02:33:19;;;;;;;4.80;3.30;;;;;;;6.29;72.09;96949.03;5025826;28;20191;-69
2024/02/05 02:35:58;;;;;;;3.77;3.37;;;;;;;6.26;71.93;96949.94;5024896;28;20426;-70
2024/02/05 02:38:29;;;;;;;3.60;3.30;;;;;;;6.24;71.97;96950.84;5024884;28;20502;-67
2024/02/05 02:41:03;;;;;;;5.00;3.77;;;;;;;6.07;72.23;96959.81;5024533;28;20417;-69
2024/02/05 02:43:34;;;;;;;3.77;3.37;;;;;;;6.11;71.96;96960.63;5024766;28;20410;-69
2024/02/05 02:46:01;;;;;;;4.77;3.70;;;;;;;6.11;72.06;96961.47;5024976;28;20434;-67
2024/02/05 02:48:27;;;;;;;4.23;3.57;;;;;;;6.11;72.16;96965.81;5028770;28;21059;-68
2024/02/05 02:50:53;;;;;;;3.93;3.13;;;;;;;6.14;71.94;96977.06;5029763;28;20462;-69
2024/02/05 02:53:19;;;;;;;3.90;3.53;;;;;;;6.12;71.97;96978.84;5029203;28;20417;-68
2024/02/05 02:55:44;;;;;;;3.63;3.33;;;;;;;6.20;71.79;96990.88;5031208;28;20194;-68
2024/02/05 02:58:09;;;;;;;3.63;2.87;;;;;;;6.22;71.43;96994.31;5037059;28;20179;-71
2024/02/05 03:00:35;;;;;;;5.97;3.20;;;;;;;6.07;71.83;96998.91;5035273;28;20167;-68
2024/02/05 03:03:01;;;;;;;6.00;3.40;;;;;;;6.05;72.20;96998.06;5033351;28;20241;-69
2024/02/05 03:05:26;;;;;;;5.77;3.20;;;;;;;6.07;71.71;96993.69;5031601;28;20446;-69
2024/02/05 03:07:52;;;;;;;4.83;3.53;;;;;;;6.10;71.72;96993.63;5028771;28;20582;-66
2024/02/05 03:10:17;;;;;;;3.63;3.30;;;;;;;6.28;70.88;96997.69;5027948;28;20207;-67
2024/02/05 03:12:42;;;;;;;3.60;3.20;;;;;;;6.29;70.53;97001.16;5028192;28;20172;-68
2024/02/05 03:15:08;;;;;;;3.23;2.93;;;;;;;6.44;70.37;97002.63;5027976;28;20195;-67
2024/02/05 03:17:33;;;;;;;4.83;3.60;;;;;;;6.38;70.27;97013.13;5028385;28;20175;-69
2024/02/05 03:19:59;;;;;;;3.57;3.27;;;;;;;6.18;71.21;97013.50;5028047;28;20253;-67
2024/02/05 03:22:24;;;;;;;3.77;3.23;;;;;;;6.14;71.19;97010.06;5028380;28;20655;-65
2024/02/05 03:24:50;;;;;;;6.70;4.50;;;;;;;6.32;70.62;97019.34;5029826;28;20222;-67
2024/02/05 03:27:15;;;;;;;6.70;3.43;;;;;;;6.31;71.13;97020.22;5027987;28;20191;-68
2024/02/05 03:29:41;;;;;;;4.73;3.70;;;;;;;6.40;70.55;97021.81;5028053;28;20179;-69
2024/02/05 03:32:07;;;;;;;4.47;3.57;;;;;;;6.31;71.08;97026.31;5028122;28;20933;-69
2024/02/05 03:34:33;;;;;;;4.90;3.80;;;;;;;6.33;70.72;97024.53;5028527;28;20200;-68
2024/02/05 03:36:58;;;;;;;6.07;3.90;;;;;;;6.28;71.00;97022.88;5028400;28;21007;-68
2024/02/05 03:39:26;;;;;;;6.00;3.70;;;;;;;6.24;71.52;97016.00;5028280;28;20266;-67
2024/02/05 03:41:51;;;;;;;6.17;3.70;;;;;;;6.34;71.09;97014.97;5028001;28;20234;-67
2024/02/05 03:44:17;;;;;;;8.87;3.60;;;;;;;6.30;71.28;97021.09;5028009;28;20837;-69
2024/02/05 03:46:42;;;;;;;4.27;3.60;;;;;;;6.37;71.15;97017.50;5027975;28;20179;-70
2024/02/05 03:49:07;;;;;;;4.03;3.60;;;;;;;6.48;70.51;97026.00;5027812;28;20745;-68
2024/02/05 03:51:34;;;;;;;4.33;3.93;;;;;;;6.41;71.18;97032.22;5027667;28;20206;-68
2024/02/05 03:54:01;;;;;;;8.37;3.60;;;;;;;6.44;70.89;97023.47;5027674;28;20195;-68
2024/02/05 03:56:26;;;;;;;3.43;3.13;;;;;;;6.41;71.07;97040.03;5027210;28;20446;-68
2024/02/05 03:58:52;;;;;;;3.83;2.93;;;;;;;6.55;70.81;97031.97;5026197;28;20446;-67
2024/02/05 04:01:17;;;;;;;6.60;4.27;;;;;;;6.47;71.30;97041.66;5027180;28;20164;-69
2024/02/05 04:03:43;;;;;;;3.70;3.20;;;;;;;6.54;70.92;97038.06;5027593;28;20183;-68
2024/02/05 04:06:08;;;;;;;3.47;3.07;;;;;;;6.52;71.40;97042.44;5027043;28;20874;-68
2024/02/05 04:08:34;;;;;;;3.63;3.33;;;;;;;6.69;71.04;97047.38;5027181;28;20919;-67
2024/02/05 04:10:59;;;;;;;3.90;3.27;;;;;;;6.74;70.78;97042.94;5026970;28;20207;-67
2024/02/05 04:13:25;;;;;;;4.83;3.47;;;;;;;6.78;71.37;97052.44;5026800;28;20331;-70
2024/02/05 04:15:51;;;;;;;5.33;2.90;;;;;;;6.79;70.70;97054.13;5027141;28;20273;-68
2024/02/05 04:18:16;;;;;;;7.53;3.10;;;;;;;6.76;71.19;97059.41;5027197;28;20239;-68
2024/02/05 04:20:42;;;;;;;3.90;3.20;;;;;;;6.62;71.37;97057.06;5026868;28;20471;-68
2024/02/05 04:23:09;;;;;;;3.43;3.10;;;;;;;6.62;71.46;97069.25;5026562;28;20188;-68
2024/02/05 04:25:35;;;;;;;4.13;3.43;;;;;;;6.61;70.94;97068.34;5026568;28;20195;-68
2024/02/05 04:28:02;;;;;;;4.70;3.33;;;;;;;6.80;70.27;97058.44;5026951;28;20425;-68
2024/02/05 04:30:29;;;;;;;5.03;3.53;;;;;;;6.68;71.03;97062.13;5026547;28;20582;-69
2024/02/05 04:32:57;;;;;;;10.70;3.53;;;;;;;6.77;71.04;97058.50;5026821;28;20418;-67
2024/02/05 04:35:22;;;;;;;4.50;3.00;;;;;;;6.74;71.18;97066.41;5026398;28;20442;-68
2024/02/05 04:37:48;;;;;;;6.63;3.67;;;;;;;6.68;71.08;97063.91;5026253;28;20429;-68
2024/02/05 04:40:13;;;;;;;4.67;3.40;;;;;;;6.68;71.31;97056.91;5026477;28;20168;-68
2024/02/05 04:42:39;;;;;;;4.17;3.40;;;;;;;6.78;70.80;97047.22;5026313;28;20171;-68
2024/02/05 04:45:05;;;;;;;3.90;3.43;;;;;;;6.91;70.38;97048.69;5026617;28;20206;-68
2024/02/05 04:47:30;;;;;;;3.97;3.50;;;;;;;6.78;70.72;97048.06;5026503;28;20249;-67
2024/02/05 04:49:56;;;;;;;4.73;3.40;;;;;;;6.69;70.81;97058.66;5025791;28;20529;-68
2024/02/05 04:52:21;;;;;;;3.93;3.43;;;;;;;6.87;70.26;97054.84;5025791;28;20199;-66
2024/02/05 04:54:46;;;;;;;3.80;3.20;;;;;;;6.73;71.52;97059.44;5025932;28;20199;-69
2024/02/05 04:57:12;;;;;;;6.50;4.40;;;;;;;6.71;71.60;97063.88;5026268;28;20179;-69
2024/02/05 04:59:37;;;;;;;5.03;4.20;;;;;;;6.77;70.81;97058.50;5026273;28;20195;-68
2024/02/05 05:02:03;;;;;;;5.47;3.77;;;;;;;6.63;71.91;97063.97;5026088;28;20172;-68
2024/02/05 05:04:29;;;;;;;7.10;3.60;;;;;;;6.79;71.61;97064.56;5026400;28;20223;-68
2024/02/05 05:06:54;;;;;;;4.37;3.97;;;;;;;6.71;71.64;97063.88;5026224;28;20207;-66
2024/02/05 05:09:20;;;;;;;3.60;2.90;;;;;;;6.83;70.82;97066.25;5025472;28;20929;-69
2024/02/05 05:11:45;;;;;;;4.43;3.60;;;;;;;6.87;71.13;97065.28;5025664;28;20804;-68
2024/02/05 05:14:11;;;;;;;5.03;4.03;;;;;;;6.77;71.70;97066.34;5025917;28;20195;-68
2024/02/05 05:16:36;;;;;;;5.47;3.73;;;;;;;6.72;71.82;97065.56;5025784;28;20175;-70
2024/02/05 05:19:01;;;;;;;4.83;3.23;;;;;;;6.86;70.90;97060.09;5025546;28;20210;-67
2024/02/05 05:21:28;;;;;;;5.60;3.50;;;;;;;6.77;71.75;97069.81;5025577;28;20599;-68
2024/02/05 05:23:53;;;;;;;3.97;3.60;;;;;;;6.81;71.71;97075.00;5018446;28;20176;-68
2024/02/05 05:26:23;;;;;;;4.53;2.93;;;;;;;6.75;71.12;97068.13;5010512;28;20512;-68
2024/02/05 05:28:52;;;;;;;4.40;3.37;;;;;;;6.90;70.79;97067.84;5011668;28;20286;-67
2024/02/05 05:31:18;;;;;;;6.40;3.30;;;;;;;6.79;71.37;97069.78;5025028;28;20468;-69
2024/02/05 05:33:45;;;;;;;4.77;4.20;;;;;;;6.88;70.96;97069.63;5025338;28;20453;-68
2024/02/05 05:36:10;;;;;;;4.77;3.13;;;;;;;6.87;70.87;97067.88;5024089;28;20503;-67
2024/02/05 05:38:36;;;;;;;3.43;3.13;;;;;;;7.05;70.20;97068.44;5024163;28;20430;-68
2024/02/05 05:41:02;;;;;;;5.00;3.10;;;;;;;7.06;70.04;97077.97;5023479;28;20167;-69
2024/02/05 05:43:28;;;;;;;5.10;3.70;;;;;;;6.91;70.34;97069.56;5023968;28;20182;-68
2024/02/05 05:45:55;;;;;;;3.97;3.23;;;;;;;6.93;70.87;97074.75;5018426;28;20846;-69
2024/02/05 05:48:20;;;;;;;3.07;2.77;;;;;;;7.07;70.27;97077.09;5004520;28;20266;-68
2024/02/05 05:50:45;;;;;;;5.47;3.33;;;;;;;7.09;69.96;97070.13;5003842;28;20467;-69
2024/02/05 05:53:11;;;;;;;6.43;3.70;;;;;;;7.12;69.84;97070.91;5004408;28;20905;-70
2024/02/05 05:55:36;;;;;;;4.17;3.33;;;;;;;7.28;69.17;97071.47;5002769;28;20243;-69
2024/02/05 05:58:02;;;;;;;3.00;2.70;;;;;;;7.06;70.63;97065.78;5006022;28;20405;-69
2024/02/05 06:00:27;;;;;;;7.63;3.30;;;;;;;6.94;71.08;97063.41;5005287;28;20191;-69
2024/02/05 06:02:52;;;;;;;4.33;3.13;;;;;;;6.87;71.16;97061.81;5004816;28;20176;-67
2024/02/05 06:05:18;;;;;;;3.50;3.07;;;;;;;6.83;71.42;97061.03;5004583;28;20207;-68
2024/02/05 06:07:44;;;;;;;4.00;3.07;;;;;;;6.89;71.55;97058.28;5009004;28;20187;-69
2024/02/05 06:10:10;;;;;;;3.50;2.70;;;;;;;7.09;70.67;97059.69;5020884;28;20651;-69
2024/02/05 06:12:35;;;;;;;3.80;3.00;;;;;;;7.04;70.46;97049.31;5016656;28;20433;-69
2024/02/05 06:15:01;;;;;;;3.37;3.07;;;;;;;7.06;71.08;97065.78;5015374;28;20215;-68
2024/02/05 06:17:28;;;;;;;3.40;2.50;;;;;;;7.03;71.43;97051.94;5005209;28;20259;-69
2024/02/05 06:19:53;;;;;;;3.87;2.37;;;;;;;7.10;70.70;97058.78;5009525;28;20171;-70
2024/02/05 06:22:18;;;;;;;6.00;2.67;;;;;;;7.17;70.83;97065.59;5021716;28;20415;-67
2024/02/05 06:24:44;;;;;;;8.53;2.63;;;;;;;7.15;70.79;97062.16;5021119;28;20257;-68
2024/02/05 06:27:10;;;;;;;5.33;3.13;;;;;;;7.08;70.63;97055.31;5023009;28;20187;-68
2024/02/05 06:29:36;;;;;;;9.43;3.53;;;;;;;7.09;71.02;97067.50;5022103;28;20229;-68
2024/02/05 06:32:01;;;;;;;7.13;4.37;;;;;;;7.18;69.93;97062.06;5014063;28;20570;-69
2024/02/05 06:34:26;;;;;;;7.00;3.40;;;;;;;7.17;69.86;97068.19;5024706;28;20210;-70
2024/02/05 06:36:52;;;;;;;3.57;2.97;;;;;;;6.98;70.42;97063.31;5013544;28;20270;-69
2024/02/05 06:39:17;;;;;;;7.63;3.27;;;;;;;6.96;70.81;97061.63;5028709;28;20178;-68
2024/02/05 06:41:43;;;;;;;5.13;4.00;;;;;;;6.88;70.49;97063.56;5031083;28;20163;-69
2024/02/05 06:44:09;;;;;;;3.60;2.73;;;;;;;6.96;70.26;97061.63;5029142;28;20206;-69
2024/02/05 06:46:34;;;;;;;5.23;4.03;;;;;;;6.87;70.80;97069.63;5028287;28;20524;-69
2024/02/05 06:49:00;;;;;;;3.97;3.57;;;;;;;7.03;70.15;97075.44;5028514;28;20509;-68
2024/02/05 06:51:26;;;;;;;5.03;3.30;;;;;;;6.97;69.87;97064.22;5028088;28;20484;-67
2024/02/05 06:53:51;;;;;;;4.90;3.70;;;;;;;6.97;69.38;97061.63;5027923;28;20744;-69
2024/02/05 06:56:16;;;;;;;4.40;3.70;;;;;;;6.76;70.58;97065.50;5027809;28;20183;-69
2024/02/05 06:58:42;;;;;;;7.83;4.57;;;;;;;6.80;69.91;97087.16;5028484;28;20178;-69
2024/02/05 07:01:07;;;;;;;6.17;4.13;;;;;;;6.78;69.36;97075.91;5028132;28;20195;-70
2024/02/05 07:03:33;;;;;;;4.47;4.00;;;;;;;6.68;69.71;97077.78;5028245;28;20186;-70
2024/02/05 07:05:58;;;;;;;4.87;4.40;;;;;;;6.64;70.20;97080.47;5028016;28;20191;-68
2024/02/05 07:08:23;;;;;;;5.43;4.50;;;;;;;6.69;69.70;97081.28;5028846;28;20492;-69
2024/02/05 07:10:49;;;;;;;6.00;4.40;;;;;;;6.66;70.12;97078.72;5029335;28;20207;-69
2024/02/05 07:13:14;;;;;;;6.97;4.27;;;;;;;7.05;79.46;97074.50;5029220;28;20176;-67
2024/02/05 07:15:40;;;;;;;8.00;4.00;;;;;;;8.43;74.96;97076.78;5025888;28;20195;-72
2024/02/05 07:18:05;;;;;;;9.03;4.47;;;;;;;8.90;68.46;97085.19;5028289;28;20178;-72
2024/02/05 07:20:30;;;;;;;5.10;4.60;;;;;;;8.37;64.30;97082.13;5031236;28;20651;-65
2024/02/05 07:22:56;;;;;;;13.27;5.07;;;;;;;7.35;67.48;97088.72;5028492;28;20905;-68
2024/02/05 07:25:21;;;;;;;10.93;5.53;;;;;;;6.95;68.42;97091.25;5027478;28;20318;-68
2024/02/05 07:27:47;;;;;;;11.00;6.07;;;;;;;6.71;70.03;97100.38;5027706;28;20262;-68
2024/02/05 07:30:13;;;;;;;11.90;4.97;;;;;;;6.57;70.44;97101.47;5029043;28;20179;-67
2024/02/05 07:32:38;;;;;;;7.47;6.10;;;;;;;6.61;70.29;97106.63;5027393;28;20669;-67
2024/02/05 07:35:05;;;;;;;7.90;5.10;;;;;;;6.41;70.96;97110.41;5029102;28;20199;-67
2024/02/05 07:37:33;;;;;;;7.60;5.23;;;;;;;6.33;71.14;97115.75;5028778;28;20256;-68
2024/02/05 07:39:59;;;;;;;5.00;4.20;;;;;;;6.28;71.76;97121.91;5029593;28;20455;-67
2024/02/05 07:42:26;;;;;;;8.50;4.60;;;;;;;6.33;71.27;97117.47;5029771;28;20809;-69
2024/02/05 07:44:51;;;;;;;9.23;4.47;;;;;;;6.39;71.14;97122.63;5029194;28;20442;-67
2024/02/05 07:47:16;;;;;;;10.37;5.07;;;;;;;6.42;70.85;97132.13;5029521;28;20230;-69
2024/02/05 07:49:42;;;;;;;5.80;4.47;;;;;;;6.53;70.38;97125.84;5029704;28;20175;-68
2024/02/05 07:52:08;;;;;;;6.53;4.40;;;;;;;6.51;70.52;97125.03;5029755;28;20210;-69
2024/02/05 07:54:33;;;;;;;6.43;5.70;;;;;;;6.44;71.27;97126.00;5030577;28;20608;-67
2024/02/05 07:57:02;;;;;;;7.07;4.93;;;;;;;6.58;70.64;97124.03;5029814;28;20414;-66
2024/02/05 07:59:28;;;;;;;6.97;4.90;;;;;;;6.53;70.83;97128.47;5029592;28;20209;-68
2024/02/05 08:01:54;;;;;;;10.03;5.43;;;;;;;6.62;70.57;97119.66;5028696;28;20421;-67
2024/02/05 08:04:19;;;;;;;5.33;4.80;;;;;;;6.71;70.13;97116.03;5029333;28;20430;-68
2024/02/05 08:06:44;;;;;;;5.73;4.70;;;;;;;6.67;70.13;97119.56;5029279;28;20580;-68
2024/02/05 08:09:10;;;;;;;7.30;5.73;;;;;;;6.57;70.37;97111.91;5028103;28;20195;-67
2024/02/05 08:11:35;;;;;;;10.37;5.80;;;;;;;6.86;69.29;97109.66;5029245;28;20203;-67
2024/02/05 08:14:01;;;;;;;7.63;5.50;;;;;;;6.80;69.32;97102.78;5029198;28;20251;-68
2024/02/05 08:16:26;;;;;;;8.47;5.93;;;;;;;6.89;69.12;97105.25;5030392;28;20178;-67
2024/02/05 08:18:52;;;;;;;8.30;5.47;;;;;;;6.85;68.99;97107.94;5024649;28;20188;-68
2024/02/05 08:21:17;;;;;;;10.93;6.17;;;;;;;6.97;68.81;97115.56;5030174;28;20180;-69
2024/02/05 08:23:47;;;;;;;10.23;5.83;;;;;;;7.08;68.47;97113.59;5026925;28;20179;-69
2024/02/05 08:26:12;;;;;;;6.97;5.80;;;;;;;7.10;68.13;97119.66;5009965;28;20208;-68
2024/02/05 08:28:38;;;;;;;8.23;5.87;;;;;;;7.15;68.13;97119.56;5019375;28;20438;-65
2024/02/05 08:31:03;;;;;;;8.00;5.60;;;;;;;7.05;68.52;97133.69;5026191;28;20273;-65
2024/02/05 08:33:30;;;;;;;7.53;5.47;;;;;;;7.40;67.51;97133.03;5012382;28;20188;-67
2024/02/05 08:35:56;;;;;;;11.60;6.33;;;;;;;7.73;66.18;97122.78;5027847;28;20208;-69
2024/02/05 08:38:21;;;;;;;11.27;5.17;;;;;;;8.98;61.84;97112.91;5032241;28;20825;-67
2024/02/05 08:40:46;;;;;;;7.43;5.63;;;;;;;10.75;56.58;97093.69;5024638;28;20207;-69
2024/02/05 08:43:12;;;;;;;6.63;5.27;;;;;;;11.97;53.28;97087.56;5037734;28;20259;-67
2024/02/05 08:45:37;;;;;;;13.70;5.33;;;;;;;13.16;49.51;97080.13;5021190;28;20585;-67
2024/02/05 08:48:04;;;;;;;8.63;4.90;;;;;;;13.98;47.34;97073.81;5024225;28;20187;-67
2024/02/05 08:50:33;;;;;;;11.33;5.40;;;;;;;14.07;46.96;97079.56;5025561;28;20199;-68
2024/02/05 08:53:03;;;;;;;6.63;5.10;;;;;;;14.80;44.33;97075.19;5025035;28;20999;-66
2024/02/05 08:55:28;;;;;;;5.40;4.90;;;;;;;15.29;44.22;97067.41;5022693;28;20553;-67
2024/02/05 08:57:53;;;;;;;8.63;5.67;;;;;;;15.35;43.41;97059.13;5020160;28;20521;-66
2024/02/05 09:00:19;;;;;;;10.07;5.00;;;;;;;15.67;42.45;97059.22;5018417;28;20214;-65
2024/02/05 09:02:53;;;;;;;5.80;5.20;;;;;;;15.03;43.65;97059.03;5020235;28;20179;-66
2024/02/05 09:05:19;;;;;;;8.43;6.00;;;;;;;14.79;43.69;97055.00;5015183;28;20218;-66
2024/02/05 09:07:45;;;;;;;13.63;6.73;;;;;;;14.47;44.08;97057.41;5026584;28;20909;-65
2024/02/05 09:10:10;;;;;;;7.10;5.97;;;;;;;14.09;45.23;97052.19;5026009;28;20410;-67
2024/02/05 09:12:35;;;;;;;8.23;7.37;;;;;;;13.70;46.12;97060.16;5024287;28;20199;-64
2024/02/05 09:15:01;;;;;;;10.07;8.67;;;;;;;13.24;46.82;97052.50;5026913;28;20206;-66
2024/02/05 09:17:27;;;;;;;9.47;8.30;;;;;;;13.59;46.61;97054.53;5024949;28;20171;-66
2024/02/05 09:19:52;;;;;;;9.43;8.53;;;;;;;14.12;45.26;97051.19;5026708;28;20558;-67
2024/02/05 09:22:18;;;;;;;10.17;7.90;;;;;;;13.80;46.20;97057.97;5027118;28;20171;-66
2024/02/05 09:24:44;;;;;;;8.33;7.53;;;;;;;13.49;46.14;97054.97;5029746;28;20191;-67
2024/02/05 09:27:10;;;;;;;7.93;7.13;;;;;;;13.65;46.75;97057.72;5041799;28;20227;-66
2024/02/05 09:29:35;;;;;;;9.67;7.20;;;;;;;13.52;46.50;97053.97;5046971;28;20409;-69
2024/02/05 09:32:01;;;;;;;8.37;7.03;;;;;;;13.50;46.86;97061.09;5044156;28;20195;-69
2024/02/05 09:34:26;;;;;;;7.63;5.70;;;;;;;13.60;46.93;97067.63;5030317;28;20195;-69
2024/02/05 09:36:51;;;;;;;9.27;6.13;;;;;;;13.57;46.59;97066.94;5019746;28;20188;-70
2024/02/05 09:39:17;;;;;;;11.00;5.03;;;;;;;13.45;47.82;97070.97;5030031;28;20183;-68
2024/02/05 09:41:44;;;;;;;8.80;4.83;;;;;;;12.49;50.01;97077.63;5028639;28;20202;-70
2024/02/05 09:44:11;;;;;;;6.60;4.70;;;;;;;12.54;50.44;97085.31;5012669;28;20200;-69
2024/02/05 09:46:38;;;;;;;6.23;4.80;;;;;;;12.36;49.32;97091.34;5010978;28;20423;-69
2024/02/05 09:49:04;;;;;;;8.67;4.63;;;;;;;12.62;49.58;97095.56;5022519;28;20415;-68
2024/02/05 09:51:32;;;;;;;6.03;4.60;;;;;;;12.70;48.96;97093.47;5008525;28;20459;-68
2024/02/05 09:53:58;;;;;;;5.73;4.57;;;;;;;12.35;49.56;97094.88;5013966;28;20863;-67
2024/02/05 09:56:25;;;;;;;4.57;4.17;;;;;;;12.12;50.37;97095.78;5018268;28;20497;-73
2024/02/05 09:58:51;;;;;;;6.70;4.10;;;;;;;12.30;50.49;97100.34;5027825;28;20421;-69
2024/02/05 10:01:19;;;;;;;5.60;4.40;;;;;;;12.51;50.10;97085.47;5026217;28;20472;-65
2024/02/05 10:03:46;;;;;;;5.70;4.23;;;;;;;12.63;49.80;97089.38;5027352;28;20499;-69
2024/02/05 10:06:17;;;;;;;5.53;4.00;;;;;;;12.27;50.13;97082.91;5027197;28;21228;-68
2024/02/05 10:08:44;;;;;;;4.40;3.80;;;;;;;11.93;51.37;97093.00;5028129;28;20413;-66
2024/02/05 10:11:11;;;;;;;11.13;5.27;;;;;;;11.56;52.51;97079.44;5028553;28;20521;-68
2024/02/05 10:13:37;;;;;;;14.40;5.30;;;;;;;11.35;52.75;97075.84;5026640;28;20418;-67
2024/02/05 10:16:03;;;;;;;8.37;4.30;;;;;;;11.25;53.53;97084.97;5028534;28;20438;-68
2024/02/05 10:18:28;;;;;;;7.70;4.73;;;;;;;11.26;53.07;97083.19;5028398;28;20209;-68
2024/02/05 10:20:54;;;;;;;8.10;4.27;;;;;;;11.33;53.61;97087.31;5028439;28;20419;-69
2024/02/05 10:23:19;;;;;;;4.90;4.40;;;;;;;11.53;53.20;97089.25;5029001;28;20198;-67
2024/02/05 10:25:44;;;;;;;6.90;4.20;;;;;;;11.87;52.17;97078.34;5027835;28;20659;-68
2024/02/05 10:28:10;;;;;;;6.60;5.07;;;;;;;12.01;51.30;97075.19;5026978;28;20194;-67
2024/02/05 10:30:35;;;;;;;6.87;5.43;;;;;;;12.24;51.18;97066.38;5028979;28;20188;-70
2024/02/05 10:33:03;;;;;;;9.63;4.80;;;;;;;12.28;50.43;97062.69;5018294;28;20188;-69
2024/02/05 10:35:29;;;;;;;4.87;4.17;;;;;;;12.55;50.80;97060.72;5006689;28;20334;-68
2024/02/05 10:38:05;;;;;;;7.73;4.27;;;;;;;12.44;50.88;97070.84;5007955;28;20533;-68
2024/02/05 10:40:35;;;;;;;9.83;5.17;;;;;;;12.13;50.81;97064.16;5026560;28;20171;-68
2024/02/05 10:43:01;;;;;;;5.93;5.23;;;;;;;12.32;50.81;97056.41;5022690;28;20886;-68
2024/02/05 10:45:28;;;;;;;12.30;6.20;;;;;;;12.04;52.01;97049.59;5023581;28;20450;-69
2024/02/05 10:47:54;;;;;;;8.10;5.80;;;;;;;12.46;51.39;97055.84;5022423;28;20458;-69
2024/02/05 10:50:20;;;;;;;30.10;6.83;;;;;;;12.57;50.04;97040.47;5024723;28;20446;-69
2024/02/05 10:52:46;;;;;;;67.90;12.77;;;;;;;12.54;50.65;97042.34;5027427;28;20270;-69
2024/02/05 10:55:13;;;;;;;35.57;8.93;;;;;;;12.41;50.83;97042.00;5019498;28;21335;-69
2024/02/05 10:57:39;;;;;;;8.70;5.77;;;;;;;12.50;51.29;97039.00;5010477;28;20480;-69
2024/02/05 11:00:08;;;;;;;7.50;5.40;;;;;;;11.85;52.10;97035.41;5012301;28;20539;-69
2024/02/05 11:02:39;;;;;;;32.53;8.43;;;;;;;12.12;52.04;97032.66;5022220;28;20422;-69
2024/02/05 11:05:06;;;;;;;20.17;5.70;;;;;;;12.17;51.73;97020.19;5033677;28;20434;-68
2024/02/05 11:07:38;;;;;;;5.90;4.80;;;;;;;12.35;51.57;97015.94;5033805;28;20433;-69
2024/02/05 11:10:04;;;;;;;14.80;5.53;;;;;;;12.59;51.14;97009.66;5034283;28;20418;-67
2024/02/05 11:12:33;;;;;;;6.83;5.10;;;;;;;12.50;51.11;97003.00;5037129;28;20449;-68
2024/02/05 11:15:10;;;;;;;8.07;5.00;;;;;;;12.62;50.22;96992.88;5034190;28;20458;-66
2024/02/05 11:17:37;;;;;;;7.63;4.10;;;;;;;12.65;50.80;96998.00;5034939;28;20440;-68
2024/02/05 11:20:08;;;;;;;6.77;4.37;;;;;;;12.69;51.01;96989.06;5034772;28;20452;-68
2024/02/05 11:22:37;;;;;;;7.83;4.80;;;;;;;12.81;50.25;96991.16;5033576;28;20417;-68
2024/02/05 11:25:07;;;;;;;10.07;5.27;;;;;;;12.86;50.06;96985.69;5032600;28;21166;-67
2024/02/05 11:27:32;;;;;;;27.00;6.10;;;;;;;12.88;50.11;96984.69;5031997;28;20432;-68
2024/02/05 11:29:58;;;;;;;17.10;5.30;;;;;;;13.01;49.30;96971.84;5028718;28;20489;-67
2024/02/05 11:32:33;;;;;;;22.97;6.90;;;;;;;13.21;48.79;96976.22;5030933;28;20581;-68
2024/02/05 11:34:58;;;;;;;15.20;5.23;;;;;;;13.20;49.63;96963.97;5029453;28;20206;-67